Time;durP1;ratioP1;P1;durP2;ratioP2;P2;SDS_P1;SDS_P2;PMS_P1;PMS_P2;Temp;Humidity;BMP_temperature;BMP_pressure;BME280_temperature;BME280_humidity;BME280_pressure;Samples;Min_cycle;Max_cycle;Signal;HPM_P1;HPM_P2
2023/11/24 00:01:27;;;;;;;1.53;0.97;;;;;;;6.41;100.00;153006.53;4991682;28;20445;-84
2023/11/24 00:03:55;;;;;;;1.63;1.00;;;;;;;6.39;100.00;153002.66;4982630;28;20453;-85
2023/11/24 00:06:21;;;;;;;1.60;1.10;;;;;;;6.41;100.00;153006.53;4982335;28;20538;-84
2023/11/24 00:08:48;;;;;;;1.37;0.97;;;;;;;6.39;100.00;153001.38;4987135;28;20929;-85
2023/11/24 00:11:15;;;;;;;1.70;1.17;;;;;;;6.39;100.00;153002.66;4992632;28;20536;-84
2023/11/24 00:13:41;;;;;;;1.43;0.90;;;;;;;6.38;100.00;152998.81;4982936;28;20569;-84
2023/11/24 00:16:09;;;;;;;2.13;1.10;;;;;;;6.39;100.00;153001.38;4989614;28;20983;-84
2023/11/24 00:18:37;;;;;;;1.23;0.83;;;;;;;6.40;100.00;153005.28;4987369;28;20442;-84
2023/11/24 00:21:09;;;;;;;1.90;1.03;;;;;;;6.40;100.00;153003.97;4981567;28;20539;-85
2023/11/24 00:23:35;;;;;;;1.37;1.07;;;;;;;6.42;100.00;153009.13;4982634;28;20456;-84
2023/11/24 00:26:04;;;;;;;1.60;1.10;;;;;;;6.43;100.00;153011.72;4995599;28;20506;-84
2023/11/24 00:28:30;;;;;;;1.53;0.90;;;;;;;6.43;100.00;153011.72;4986176;28;20456;-84
2023/11/24 00:30:57;;;;;;;2.17;1.00;;;;;;;6.42;100.00;153009.13;4981203;28;21016;-84
2023/11/24 00:33:23;;;;;;;1.93;1.30;;;;;;;6.42;100.00;153009.13;5000932;28;20473;-84
2023/11/24 00:35:50;;;;;;;2.63;0.90;;;;;;;6.42;100.00;153009.13;4987264;28;20442;-84
2023/11/24 00:38:19;;;;;;;3.27;1.60;;;;;;;6.43;100.00;153011.72;4986375;28;20450;-85
2023/11/24 00:40:45;;;;;;;2.40;1.27;;;;;;;6.43;100.00;153011.72;4967696;28;20462;-84
2023/11/24 00:43:13;;;;;;;3.13;1.20;;;;;;;6.44;100.00;153014.28;4986245;28;20862;-84
2023/11/24 00:45:39;;;;;;;1.67;0.80;;;;;;;6.43;100.00;153011.72;4971405;28;20464;-84
2023/11/24 00:48:06;;;;;;;2.20;1.43;;;;;;;6.42;100.00;153009.13;4987179;28;20464;-84
2023/11/24 00:50:33;;;;;;;1.17;0.70;;;;;;;6.42;100.00;153010.41;4971904;28;20485;-84
2023/11/24 00:53:01;;;;;;;1.30;0.90;;;;;;;6.45;100.00;153018.16;4974676;28;20491;-84
2023/11/24 00:55:30;;;;;;;1.57;1.13;;;;;;;6.43;100.00;153011.72;4987384;28;20433;-84
2023/11/24 00:57:56;;;;;;;1.73;1.20;;;;;;;6.44;100.00;153014.28;4985694;28;20465;-84
2023/11/24 01:00:23;;;;;;;1.77;1.30;;;;;;;6.43;100.00;153011.72;4987785;28;20443;-84
2023/11/24 01:02:50;;;;;;;1.53;0.87;;;;;;;6.46;100.00;153019.47;4985402;28;20540;-84
2023/11/24 01:05:17;;;;;;;1.37;0.90;;;;;;;6.45;100.00;153016.88;4986872;28;20445;-84
2023/11/24 01:07:43;;;;;;;1.80;1.20;;;;;;;6.44;100.00;153014.28;4984907;28;20457;-84
2023/11/24 01:10:10;;;;;;;2.67;1.40;;;;;;;6.46;100.00;153019.47;4986868;28;20872;-84
2023/11/24 01:12:38;;;;;;;1.50;1.20;;;;;;;6.42;100.00;153010.41;4991076;28;20536;-84
2023/11/24 01:15:08;;;;;;;1.90;1.03;;;;;;;6.43;100.00;153011.72;4988708;28;20473;-84
2023/11/24 01:17:35;;;;;;;2.43;1.30;;;;;;;6.44;100.00;153015.56;4970058;28;20462;-84
2023/11/24 01:20:03;;;;;;;2.87;1.47;;;;;;;6.46;100.00;153019.47;4953890;28;20449;-84
2023/11/24 01:22:30;;;;;;;1.30;0.97;;;;;;;6.44;100.00;153014.28;4964959;28;20576;-84
2023/11/24 01:24:56;;;;;;;3.20;1.30;;;;;;;6.45;100.00;153016.88;4987245;28;20457;-84
2023/11/24 01:27:23;;;;;;;1.90;1.40;;;;;;;6.48;100.00;153024.63;4987014;28;20476;-84
2023/11/24 01:29:51;;;;;;;1.80;1.43;;;;;;;6.47;100.00;153022.00;4979146;28;20460;-84
2023/11/24 01:32:17;;;;;;;2.03;1.40;;;;;;;6.47;100.00;153022.00;4989606;28;20512;-84
2023/11/24 01:34:44;;;;;;;2.40;1.80;;;;;;;6.46;100.00;153019.47;4987751;28;20481;-84
2023/11/24 01:37:11;;;;;;;2.23;1.50;;;;;;;6.48;100.00;153024.63;4987548;28;20458;-85
2023/11/24 01:39:37;;;;;;;2.67;1.33;;;;;;;6.47;100.00;153023.31;4972907;28;20446;-84
2023/11/24 01:42:04;;;;;;;2.10;1.40;;;;;;;6.49;100.00;153027.16;4971108;28;20576;-84
2023/11/24 01:44:31;;;;;;;2.00;1.60;;;;;;;6.49;100.00;153028.47;4967033;28;20961;-84
2023/11/24 01:46:59;;;;;;;1.80;1.40;;;;;;;6.49;100.00;153027.16;4965135;28;20800;-84
2023/11/24 01:49:25;;;;;;;1.87;1.30;;;;;;;6.50;100.00;153029.75;4984138;28;20438;-84
2023/11/24 01:51:53;;;;;;;2.33;1.30;;;;;;;6.49;100.00;153027.16;4972902;28;20535;-75
2023/11/24 01:54:19;;;;;;;2.17;1.40;;;;;;;6.50;100.00;153029.75;4988781;28;20825;-75
2023/11/24 01:56:45;;;;;;;3.30;1.57;;;;;;;6.50;100.00;153031.06;4987997;28;20449;-75
2023/11/24 01:59:13;;;;;;;2.00;1.50;;;;;;;6.54;100.00;153041.38;4973831;28;20446;-75
2023/11/24 02:01:41;;;;;;;1.80;1.00;;;;;;;6.55;100.00;153042.66;4972935;28;20449;-75
2023/11/24 02:04:09;;;;;;;1.87;1.40;;;;;;;6.55;100.00;153042.66;4990263;28;20879;-75
2023/11/24 02:06:35;;;;;;;2.00;1.40;;;;;;;6.54;100.00;153040.13;4988339;28;20520;-75
2023/11/24 02:09:02;;;;;;;1.67;1.27;;;;;;;6.52;100.00;153034.91;4990162;28;20430;-75
2023/11/24 02:11:28;;;;;;;3.50;1.77;;;;;;;6.53;100.00;153037.50;4984994;28;20478;-75
2023/11/24 02:13:55;;;;;;;1.70;1.30;;;;;;;6.51;100.00;153033.63;4992228;28;20846;-75
2023/11/24 02:16:21;;;;;;;1.70;1.50;;;;;;;6.51;100.00;153033.63;4990786;28;20540;-75
2023/11/24 02:18:48;;;;;;;1.57;1.13;;;;;;;6.51;100.00;153032.38;4989613;28;20986;-75
2023/11/24 02:21:17;;;;;;;1.70;1.50;;;;;;;6.51;100.00;153032.38;4993532;28;20208;-75
2023/11/24 02:23:45;;;;;;;2.53;1.70;;;;;;;6.54;100.00;153041.38;4992975;28;20461;-75
2023/11/24 02:26:11;;;;;;;2.60;1.77;;;;;;;6.52;100.00;153034.91;4991381;28;20536;-75
2023/11/24 02:28:38;;;;;;;3.00;2.00;;;;;;;6.52;100.00;153036.22;4981127;28;20656;-75
2023/11/24 02:31:05;;;;;;;3.23;2.00;;;;;;;6.50;100.00;153029.75;4987013;28;20447;-75
2023/11/24 02:33:33;;;;;;;2.57;1.50;;;;;;;6.50;100.00;153029.75;4969290;28;20822;-75
2023/11/24 02:36:05;;;;;;;1.80;1.60;;;;;;;6.51;100.00;153032.38;4997858;28;20533;-75
2023/11/24 02:38:32;;;;;;;2.30;1.70;;;;;;;6.51;100.00;153032.38;4972207;28;20552;-75
2023/11/24 02:41:00;;;;;;;2.83;1.50;;;;;;;6.50;100.00;153031.06;4990673;28;20556;-75
2023/11/24 02:43:27;;;;;;;2.17;1.73;;;;;;;6.49;100.00;153027.16;4983303;28;20453;-75
2023/11/24 02:45:52;;;;;;;2.00;1.40;;;;;;;6.48;100.00;153025.91;4971902;28;20442;-75
2023/11/24 02:48:19;;;;;;;1.93;1.20;;;;;;;6.50;100.00;153031.06;4991176;28;20855;-75
2023/11/24 02:50:45;;;;;;;3.30;1.33;;;;;;;6.50;100.00;153031.06;4984767;28;20364;-75
2023/11/24 02:53:12;;;;;;;1.30;1.07;;;;;;;6.51;100.00;153032.38;4970415;28;21008;-75
2023/11/24 02:55:39;;;;;;;1.70;1.30;;;;;;;6.50;100.00;153029.75;4986094;28;20473;-75
2023/11/24 02:58:07;;;;;;;1.60;1.23;;;;;;;6.50;100.00;153031.06;4990163;28;20456;-75
2023/11/24 03:00:34;;;;;;;2.00;1.20;;;;;;;6.49;100.00;153027.16;4987201;28;21019;-75
2023/11/24 03:03:03;;;;;;;2.17;1.30;;;;;;;6.49;100.00;153027.16;4987250;28;20452;-75
2023/11/24 03:05:30;;;;;;;1.67;1.40;;;;;;;6.50;100.00;153029.75;4985612;28;20488;-75
2023/11/24 03:07:57;;;;;;;1.60;1.20;;;;;;;6.51;100.00;153032.38;4988905;28;20863;-75
2023/11/24 03:10:23;;;;;;;1.90;1.20;;;;;;;6.50;100.00;153029.75;4970669;28;20454;-75
2023/11/24 03:12:50;;;;;;;1.40;1.00;;;;;;;6.49;100.00;153027.16;4987661;28;20461;-75
2023/11/24 03:15:19;;;;;;;1.60;1.50;;;;;;;6.49;100.00;153027.16;4987512;28;20485;-75
2023/11/24 03:17:46;;;;;;;1.40;0.90;;;;;;;6.51;100.00;153032.38;4990573;28;20441;-75
2023/11/24 03:20:14;;;;;;;1.70;1.03;;;;;;;6.50;100.00;153031.06;4958040;28;20430;-75
2023/11/24 03:22:40;;;;;;;1.87;0.83;;;;;;;6.51;100.00;153032.38;4981617;28;20977;-75
2023/11/24 03:25:08;;;;;;;1.70;1.00;;;;;;;6.51;100.00;153032.38;4988817;28;20771;-75
2023/11/24 03:27:36;;;;;;;1.10;0.80;;;;;;;6.51;100.00;153033.63;4975598;28;20872;-75
2023/11/24 03:30:03;;;;;;;1.03;0.70;;;;;;;6.51;100.00;153032.38;4990209;28;20477;-75
2023/11/24 03:32:31;;;;;;;1.47;0.90;;;;;;;6.52;100.00;153034.91;4984924;28;20967;-75
2023/11/24 03:34:57;;;;;;;2.27;0.80;;;;;;;6.51;100.00;153032.38;4984493;28;20473;-75
2023/11/24 03:37:25;;;;;;;1.20;0.70;;;;;;;6.52;100.00;153034.91;4988811;28;20836;-75
2023/11/24 03:39:51;;;;;;;1.50;0.70;;;;;;;6.50;100.00;153031.06;4992209;28;21039;-75
2023/11/24 03:42:19;;;;;;;0.90;0.50;;;;;;;6.54;100.00;153040.13;4986244;28;20539;-74
2023/11/24 03:44:45;;;;;;;1.10;0.60;;;;;;;6.54;100.00;153040.13;4985087;28;20438;-74
2023/11/24 03:47:12;;;;;;;1.37;0.80;;;;;;;6.54;100.00;153041.38;4985977;28;20961;-74
2023/11/24 03:49:40;;;;;;;1.60;0.60;;;;;;;6.50;100.00;153029.75;4967436;28;20457;-74
2023/11/24 03:52:06;;;;;;;1.20;0.80;;;;;;;6.49;100.00;153027.16;4985553;28;20468;-74
2023/11/24 03:54:33;;;;;;;1.10;0.70;;;;;;;6.45;100.00;153016.88;4988169;28;20477;-74
2023/11/24 03:57:00;;;;;;;1.50;0.80;;;;;;;6.45;100.00;153018.16;4988766;28;20465;-74
2023/11/24 03:59:26;;;;;;;1.27;0.60;;;;;;;6.46;100.00;153019.47;4988378;28;20476;-74
2023/11/24 04:01:53;;;;;;;2.03;0.60;;;;;;;6.46;100.00;153019.47;4971023;28;21005;-74
2023/11/24 04:04:19;;;;;;;1.00;0.57;;;;;;;6.44;100.00;153014.28;4988579;28;20457;-74
2023/11/24 04:06:47;;;;;;;0.97;0.70;;;;;;;6.44;100.00;153014.28;4989850;28;20449;-74
2023/11/24 04:09:14;;;;;;;1.30;0.50;;;;;;;6.43;100.00;153013.03;4970066;28;20484;-74
2023/11/24 04:11:41;;;;;;;1.13;0.60;;;;;;;6.43;100.00;153011.72;4993539;28;20457;-74
2023/11/24 04:14:07;;;;;;;1.20;0.60;;;;;;;6.43;100.00;153011.72;4973766;28;20458;-74
2023/11/24 04:16:35;;;;;;;1.20;0.70;;;;;;;6.42;100.00;153009.13;4986868;28;20517;-74
2023/11/24 04:19:01;;;;;;;1.10;0.50;;;;;;;6.43;100.00;153011.72;4994270;28;20492;-75
2023/11/24 04:21:28;;;;;;;0.93;0.50;;;;;;;6.42;100.00;153009.13;4971456;28;20465;-74
2023/11/24 04:23:56;;;;;;;0.90;0.50;;;;;;;6.43;100.00;153011.72;4987198;28;20881;-74
2023/11/24 04:26:23;;;;;;;1.03;0.53;;;;;;;6.41;100.00;153007.81;4988453;28;20442;-74
2023/11/24 04:28:49;;;;;;;1.13;0.60;;;;;;;6.42;100.00;153010.41;4991731;28;20465;-74
2023/11/24 04:31:16;;;;;;;2.00;0.80;;;;;;;6.43;100.00;153011.72;4987203;28;21015;-74
2023/11/24 04:33:42;;;;;;;1.23;0.50;;;;;;;6.42;100.00;153009.13;4988199;28;20988;-74
2023/11/24 04:36:12;;;;;;;0.90;0.50;;;;;;;6.42;100.00;153009.13;4986517;28;20473;-74
2023/11/24 04:38:38;;;;;;;0.97;0.50;;;;;;;6.43;100.00;153011.72;4988120;28;20549;-74
2023/11/24 04:41:07;;;;;;;1.90;0.70;;;;;;;6.42;100.00;153010.41;4988731;28;20457;-74
2023/11/24 04:43:33;;;;;;;1.53;0.50;;;;;;;6.44;100.00;153014.28;4985705;28;20580;-74
2023/11/24 04:46:00;;;;;;;1.10;0.50;;;;;;;6.44;100.00;153014.28;4982585;28;20461;-74
2023/11/24 04:48:26;;;;;;;1.23;0.63;;;;;;;6.44;100.00;153014.28;4983774;28;20489;-75
2023/11/24 04:50:53;;;;;;;1.93;0.70;;;;;;;6.44;100.00;153014.28;4968616;28;20527;-74
2023/11/24 04:53:20;;;;;;;0.90;0.50;;;;;;;6.45;100.00;153016.88;4983876;28;20484;-75
2023/11/24 04:55:46;;;;;;;1.07;0.60;;;;;;;6.46;100.00;153019.47;4983041;28;20488;-74
2023/11/24 04:58:14;;;;;;;1.00;0.57;;;;;;;6.48;100.00;153024.63;4989232;28;20457;-75
2023/11/24 05:00:41;;;;;;;2.03;0.70;;;;;;;6.56;100.00;153045.25;4987727;28;20457;-75
2023/11/24 05:03:08;;;;;;;2.43;1.07;;;;;;;6.33;100.00;152985.91;4988669;28;20821;-74
2023/11/24 05:05:34;;;;;;;1.30;0.83;;;;;;;6.13;100.00;152935.59;4985531;28;20493;-75
2023/11/24 05:08:01;;;;;;;2.27;0.70;;;;;;;6.04;100.00;152913.63;4988387;28;20449;-75
2023/11/24 05:10:29;;;;;;;2.57;1.27;;;;;;;5.97;100.00;152895.59;4989327;28;20826;-75
2023/11/24 05:12:55;;;;;;;1.30;0.90;;;;;;;5.97;100.00;152894.28;4996514;28;20460;-75
2023/11/24 05:15:24;;;;;;;1.37;0.83;;;;;;;5.95;100.00;152890.44;4987908;28;20493;-75
2023/11/24 05:17:50;;;;;;;3.10;1.23;;;;;;;5.93;100.00;152884.00;4986934;28;20464;-75
2023/11/24 05:20:18;;;;;;;1.90;1.30;;;;;;;5.90;100.00;152877.56;4985893;28;20453;-74
2023/11/24 05:22:45;;;;;;;5.13;1.30;;;;;;;5.91;100.00;152880.09;4992822;28;20461;-76
2023/11/24 05:25:11;;;;;;;2.33;0.97;;;;;;;5.85;100.00;152863.38;4989946;28;20806;-76
2023/11/24 05:27:38;;;;;;;2.80;1.77;;;;;;;5.86;100.00;152867.22;4976433;28;20459;-76
2023/11/24 05:30:08;;;;;;;2.47;1.70;;;;;;;5.82;100.00;152856.88;4988724;28;20544;-76
2023/11/24 05:32:37;;;;;;;3.30;1.70;;;;;;;5.80;100.00;152851.66;4992535;28;20430;-76
2023/11/24 05:35:04;;;;;;;2.00;1.57;;;;;;;5.81;100.00;152854.28;4993723;28;20512;-76
2023/11/24 05:37:30;;;;;;;3.63;1.70;;;;;;;5.84;100.00;152862.00;4991151;28;20519;-76
2023/11/24 05:39:57;;;;;;;2.33;1.97;;;;;;;5.79;100.00;152849.13;4991911;28;20784;-76
2023/11/24 05:42:23;;;;;;;2.83;1.27;;;;;;;5.76;100.00;152841.38;4992368;28;20496;-76
2023/11/24 05:44:50;;;;;;;2.40;1.50;;;;;;;5.77;100.00;152843.94;4989949;28;20473;-76
2023/11/24 05:47:16;;;;;;;2.30;1.63;;;;;;;5.77;100.00;152843.94;4990906;28;20441;-76
2023/11/24 05:49:46;;;;;;;3.13;1.60;;;;;;;5.74;100.00;152834.94;4990842;28;20457;-76
2023/11/24 05:52:15;;;;;;;3.17;1.87;;;;;;;5.72;100.00;152829.78;4991428;28;20523;-76
2023/11/24 05:54:42;;;;;;;4.23;1.80;;;;;;;5.70;100.00;152825.88;4977855;28;20517;-76
2023/11/24 05:57:08;;;;;;;2.73;2.10;;;;;;;5.69;100.00;152823.34;4971697;28;20874;-76
2023/11/24 05:59:35;;;;;;;3.00;1.57;;;;;;;5.68;100.00;152820.75;4987576;28;20873;-76
2023/11/24 06:02:03;;;;;;;4.30;1.60;;;;;;;5.69;100.00;152823.34;4994394;28;20801;-75
2023/11/24 06:04:29;;;;;;;3.33;1.97;;;;;;;5.67;100.00;152816.84;4994330;28;20457;-76
2023/11/24 06:06:57;;;;;;;5.20;2.00;;;;;;;5.68;100.00;152820.75;4999193;28;21051;-76
2023/11/24 06:09:24;;;;;;;2.63;1.70;;;;;;;5.68;100.00;152819.44;4995035;28;21104;-76
2023/11/24 06:11:51;;;;;;;4.90;1.97;;;;;;;5.66;100.00;152815.59;4995463;28;20492;-76
2023/11/24 06:14:18;;;;;;;4.70;1.97;;;;;;;5.64;100.00;152810.41;4995700;28;20453;-77
2023/11/24 06:16:44;;;;;;;6.27;2.00;;;;;;;5.66;100.00;152814.28;4996321;28;20622;-76
2023/11/24 06:19:11;;;;;;;2.47;1.63;;;;;;;5.66;100.00;152814.28;4995640;28;20949;-77
2023/11/24 06:21:38;;;;;;;4.70;2.10;;;;;;;5.66;100.00;152815.59;4993386;28;20460;-76
2023/11/24 06:24:06;;;;;;;2.80;1.87;;;;;;;5.65;100.00;152813.00;4993342;28;20468;-77
2023/11/24 06:26:34;;;;;;;2.13;1.80;;;;;;;5.64;100.00;152810.41;4992852;28;20457;-76
2023/11/24 06:29:00;;;;;;;3.93;2.03;;;;;;;5.66;100.00;152814.28;4996231;28;20448;-76
2023/11/24 06:31:27;;;;;;;4.53;1.93;;;;;;;5.67;100.00;152816.84;4990626;28;20449;-76
2023/11/24 06:33:54;;;;;;;7.20;1.70;;;;;;;5.66;100.00;152815.59;4988553;28;20867;-76
2023/11/24 06:36:22;;;;;;;4.50;1.70;;;;;;;5.67;100.00;152818.16;4994140;28;20476;-76
2023/11/24 06:38:49;;;;;;;3.90;2.00;;;;;;;5.67;100.00;152818.16;5000802;28;20998;-77
2023/11/24 06:41:17;;;;;;;2.10;1.50;;;;;;;5.68;100.00;152819.44;4987263;28;20458;-77
2023/11/24 06:43:43;;;;;;;2.77;1.93;;;;;;;5.70;100.00;152825.88;4990769;28;20449;-77
2023/11/24 06:46:12;;;;;;;3.20;1.73;;;;;;;5.69;100.00;152823.34;4991666;28;20635;-76
2023/11/24 06:48:39;;;;;;;2.90;1.70;;;;;;;5.70;100.00;152825.88;4996955;28;20457;-76
2023/11/24 06:51:07;;;;;;;3.00;1.77;;;;;;;5.72;100.00;152831.03;4996904;28;20461;-76
2023/11/24 06:53:33;;;;;;;4.43;2.23;;;;;;;5.74;100.00;152836.22;4976699;28;20531;-77
2023/11/24 06:56:00;;;;;;;3.10;1.60;;;;;;;5.74;100.00;152834.94;4975606;28;20522;-76
2023/11/24 06:58:28;;;;;;;4.30;1.77;;;;;;;5.75;100.00;152838.78;4976268;28;20461;-77
2023/11/24 07:00:55;;;;;;;2.50;1.60;;;;;;;5.74;100.00;152834.94;4988098;28;20633;-77
2023/11/24 07:03:21;;;;;;;5.07;2.30;;;;;;;5.73;100.00;152833.63;4997233;28;20461;-77
2023/11/24 07:05:48;;;;;;;2.80;2.20;;;;;;;5.74;100.00;152836.22;4996099;28;20587;-77
2023/11/24 07:08:16;;;;;;;3.70;1.63;;;;;;;5.75;100.00;152837.47;4986006;28;20472;-77
2023/11/24 07:10:43;;;;;;;8.07;2.20;;;;;;;5.75;100.00;152838.78;4993796;28;20469;-77
2023/11/24 07:13:09;;;;;;;4.10;1.90;;;;;;;5.74;100.00;152834.94;4995760;28;20477;-77
2023/11/24 07:15:38;;;;;;;4.67;1.77;;;;;;;5.73;100.00;152833.63;4989341;28;20534;-77
2023/11/24 07:18:04;;;;;;;4.70;1.77;;;;;;;5.73;100.00;152833.63;4995012;28;20549;-77
2023/11/24 07:20:31;;;;;;;6.40;1.80;;;;;;;5.74;100.00;152836.22;4993565;28;20495;-77
2023/11/24 07:22:58;;;;;;;4.03;1.70;;;;;;;5.75;100.00;152838.78;4992778;28;20512;-77
2023/11/24 07:25:24;;;;;;;2.53;1.43;;;;;;;5.77;100.00;152842.69;4986102;28;20485;-76
2023/11/24 07:27:51;;;;;;;2.17;1.70;;;;;;;5.77;100.00;152843.94;4990928;28;20518;-76
2023/11/24 07:30:19;;;;;;;3.10;2.07;;;;;;;5.77;100.00;152842.69;4986787;28;20483;-74
2023/11/24 07:32:47;;;;;;;3.17;1.80;;;;;;;5.78;100.00;152846.53;4988359;28;20496;-77
2023/11/24 07:35:14;;;;;;;3.57;1.60;;;;;;;5.78;100.00;152846.53;4989978;28;20456;-77
2023/11/24 07:37:41;;;;;;;2.07;1.47;;;;;;;5.78;100.00;152846.53;4963289;28;20476;-77
2023/11/24 07:40:13;;;;;;;4.43;1.87;;;;;;;5.79;100.00;152849.13;4995257;28;20464;-76
2023/11/24 07:42:40;;;;;;;3.13;1.90;;;;;;;5.80;100.00;152851.66;4994563;28;21126;-76
2023/11/24 07:45:10;;;;;;;3.43;1.50;;;;;;;5.80;100.00;152851.66;4991763;28;20465;-75
2023/11/24 07:47:36;;;;;;;4.47;1.53;;;;;;;5.82;100.00;152856.88;4993634;28;20442;-76
2023/11/24 07:50:06;;;;;;;2.77;2.20;;;;;;;5.83;100.00;152858.13;4992207;28;20887;-76
2023/11/24 07:52:32;;;;;;;2.50;1.40;;;;;;;5.84;100.00;152862.00;4996611;28;20465;-75
2023/11/24 07:54:59;;;;;;;4.63;1.90;;;;;;;5.85;100.00;152863.38;4992065;28;20489;-76
2023/11/24 07:57:26;;;;;;;6.10;2.17;;;;;;;5.85;100.00;152864.63;4979232;28;20980;-76
2023/11/24 07:59:54;;;;;;;4.20;1.80;;;;;;;5.88;100.00;152871.06;4993976;28;20465;-76
2023/11/24 08:02:20;;;;;;;4.03;1.90;;;;;;;5.91;100.00;152880.09;4994181;28;20499;-76
2023/11/24 08:04:47;;;;;;;2.50;1.53;;;;;;;5.92;100.00;152882.69;4993807;28;20481;-76
2023/11/24 08:07:14;;;;;;;2.70;1.33;;;;;;;5.94;100.00;152887.84;4991839;28;20453;-76
2023/11/24 08:09:41;;;;;;;3.73;1.70;;;;;;;5.97;100.00;152895.59;4995805;28;20467;-85
2023/11/24 08:12:08;;;;;;;5.80;1.87;;;;;;;5.98;100.00;152898.16;4994582;28;20455;-90
2023/11/24 08:14:35;;;;;;;2.40;1.77;;;;;;;6.00;100.00;152902.03;4997479;28;20843;-86
2023/11/24 08:17:01;;;;;;;4.53;1.63;;;;;;;6.01;100.00;152905.88;4994562;28;20482;-86
2023/11/24 08:19:29;;;;;;;2.50;1.53;;;;;;;6.02;100.00;152907.19;4994879;28;20556;-86
2023/11/24 08:21:55;;;;;;;3.00;1.57;;;;;;;6.03;100.00;152911.09;4989322;28;20465;-86
2023/11/24 08:24:23;;;;;;;2.77;1.33;;;;;;;6.04;100.00;152913.63;4994991;28;20533;-85
2023/11/24 08:26:51;;;;;;;2.83;1.47;;;;;;;6.04;100.00;152913.63;4996157;28;20449;-85
2023/11/24 08:32:11;;;;;;;2.37;1.80;;;;;;;6.05;100.00;152916.25;4990492;28;20445;-85
2023/11/24 08:34:38;;;;;;;9.40;3.00;;;;;;;6.06;100.00;152918.78;4992052;28;20452;-86
2023/11/24 08:37:06;;;;;;;4.37;1.80;;;;;;;6.06;100.00;152918.78;4989540;28;20472;-85
2023/11/24 08:39:36;;;;;;;4.00;2.13;;;;;;;6.07;100.00;152921.38;4989190;28;20452;-85
2023/11/24 08:42:03;;;;;;;3.57;2.00;;;;;;;6.08;100.00;152923.97;4992067;28;20455;-85
2023/11/24 08:44:30;;;;;;;3.80;1.80;;;;;;;6.09;100.00;152926.53;4995838;28;20457;-86
2023/11/24 08:46:57;;;;;;;4.60;1.83;;;;;;;6.13;100.00;152936.88;4988592;28;20496;-85
2023/11/24 08:49:24;;;;;;;6.70;2.07;;;;;;;6.13;100.00;152936.88;4967083;28;20458;-85
2023/11/24 08:51:50;;;;;;;4.53;2.80;;;;;;;6.14;100.00;152938.19;4995523;28;20489;-85
2023/11/24 08:54:17;;;;;;;4.20;2.00;;;;;;;6.16;100.00;152943.31;4992337;28;20535;-86
2023/11/24 08:56:44;;;;;;;4.97;1.70;;;;;;;6.16;100.00;152942.03;4992908;28;20507;-86
2023/11/24 08:59:11;;;;;;;2.13;1.60;;;;;;;6.18;100.00;152947.19;4996356;28;20801;-86
2023/11/24 09:01:38;;;;;;;2.97;1.97;;;;;;;6.22;100.00;152957.53;4995838;28;20548;-86
2023/11/24 09:04:05;;;;;;;3.73;1.93;;;;;;;6.27;100.00;152970.41;4994959;28;20511;-85
2023/11/24 09:06:35;;;;;;;6.60;2.37;;;;;;;6.31;100.00;152980.72;4997220;28;20465;-85
2023/11/24 09:09:02;;;;;;;5.30;1.87;;;;;;;6.33;100.00;152987.16;4997453;28;20518;-86
2023/11/24 09:11:30;;;;;;;5.57;2.30;;;;;;;6.37;100.00;152997.53;4991135;28;20457;-85
2023/11/24 09:13:58;;;;;;;6.73;2.00;;;;;;;6.39;100.00;153001.38;4981717;28;21014;-84
2023/11/24 09:16:25;;;;;;;4.47;2.10;;;;;;;6.39;100.00;153001.38;4998584;28;20983;-85
2023/11/24 09:18:51;;;;;;;4.10;2.10;;;;;;;6.39;100.00;153002.66;4992586;28;20956;-85
2023/11/24 09:21:18;;;;;;;3.73;1.93;;;;;;;6.39;100.00;153001.38;4990270;28;20473;-85
2023/11/24 09:23:45;;;;;;;8.33;2.90;;;;;;;6.40;100.00;153003.97;4994312;28;20982;-85
2023/11/24 09:26:12;;;;;;;3.87;1.93;;;;;;;6.37;100.00;152997.53;5004259;28;20461;-85
2023/11/24 09:28:39;;;;;;;4.80;2.00;;;;;;;6.38;100.00;153000.06;5000902;28;20452;-85
2023/11/24 09:31:09;;;;;;;3.17;1.90;;;;;;;6.38;100.00;153000.06;5000459;28;20551;-84
2023/11/24 09:33:37;;;;;;;6.53;2.53;;;;;;;6.38;100.00;153000.06;5000662;28;20461;-86
2023/11/24 09:36:04;;;;;;;5.47;2.47;;;;;;;6.38;100.00;153000.06;4995301;28;20489;-85
2023/11/24 09:38:31;;;;;;;4.43;2.40;;;;;;;6.38;100.00;152998.81;4999130;28;21007;-85
2023/11/24 09:41:02;;;;;;;4.33;2.07;;;;;;;6.38;100.00;153000.06;4981258;28;20452;-85
2023/11/24 09:43:28;;;;;;;3.60;2.13;;;;;;;6.38;100.00;152998.81;4981302;28;20456;-85
2023/11/24 09:45:55;;;;;;;8.17;2.70;;;;;;;6.38;100.00;153000.06;4995663;28;21035;-85
2023/11/24 09:48:23;;;;;;;5.70;2.50;;;;;;;6.40;100.00;153003.97;4995835;28;20874;-85
2023/11/24 09:51:19;;;;;;;5.80;2.50;;;;;;;6.42;100.00;153009.13;4998903;28;20471;-84
2023/11/24 09:53:45;;;;;;;6.20;2.80;;;;;;;6.44;100.00;153015.56;4962746;28;20488;-85
2023/11/24 09:56:12;;;;;;;7.33;2.50;;;;;;;6.46;100.00;153019.47;5000069;28;20482;-84
2023/11/24 09:58:38;;;;;;;4.00;2.13;;;;;;;6.48;100.00;153025.91;4998241;28;20449;-85
2023/11/24 10:01:13;;;;;;;3.90;2.10;;;;;;;6.47;100.00;153023.31;4997150;28;20520;-85
2023/11/24 10:03:45;;;;;;;5.77;2.10;;;;;;;6.45;100.00;153018.16;4998761;28;20895;-84
2023/11/24 10:06:11;;;;;;;5.27;2.23;;;;;;;6.46;100.00;153019.47;4997724;28;20483;-85
2023/11/24 10:08:38;;;;;;;8.90;2.33;;;;;;;6.47;100.00;153022.00;4998949;28;20871;-85
2023/11/24 10:11:12;;;;;;;4.83;1.97;;;;;;;6.47;100.00;153023.31;4998003;28;20520;-85
2023/11/24 10:13:39;;;;;;;7.00;2.43;;;;;;;6.46;100.00;153020.72;4983437;28;20453;-84
2023/11/24 10:16:06;;;;;;;4.50;3.00;;;;;;;6.48;100.00;153024.63;4996886;28;20453;-84
2023/11/24 10:18:32;;;;;;;6.17;2.60;;;;;;;6.47;100.00;153023.31;4995364;28;20992;-84
2023/11/24 10:21:01;;;;;;;3.47;1.97;;;;;;;6.47;100.00;153023.31;4993905;28;20519;-85
2023/11/24 10:23:29;;;;;;;3.70;2.20;;;;;;;6.46;100.00;153020.72;4996279;28;20527;-85
2023/11/24 10:25:56;;;;;;;5.20;2.30;;;;;;;6.45;100.00;153016.88;4983164;28;20551;-84
2023/11/24 10:28:23;;;;;;;4.80;2.47;;;;;;;6.45;100.00;153016.88;4998503;28;21378;-84
2023/11/24 10:30:49;;;;;;;4.80;2.50;;;;;;;6.43;100.00;153011.72;5000363;28;20522;-84
2023/11/24 10:33:17;;;;;;;7.50;2.40;;;;;;;6.44;100.00;153014.28;4994482;28;20456;-84
2023/11/24 10:35:45;;;;;;;9.40;3.20;;;;;;;6.45;100.00;153016.88;4997673;28;20444;-84
2023/11/24 10:38:14;;;;;;;11.90;3.40;;;;;;;6.47;100.00;153022.00;4980255;28;20528;-84
2023/11/24 10:40:40;;;;;;;8.23;3.47;;;;;;;6.48;100.00;153025.91;4998816;28;20511;-84
2023/11/24 10:43:08;;;;;;;8.20;3.13;;;;;;;6.51;100.00;153032.38;4997133;28;20461;-84
2023/11/24 10:45:37;;;;;;;6.60;3.27;;;;;;;6.55;100.00;153042.66;5004926;28;20468;-84
2023/11/24 10:48:09;;;;;;;7.23;3.63;;;;;;;6.57;100.00;153047.81;5021792;28;20440;-83
2023/11/24 10:50:39;;;;;;;5.70;2.90;;;;;;;6.59;100.00;153053.00;5018039;28;20450;-84
2023/11/24 10:53:16;;;;;;;5.90;3.00;;;;;;;6.62;100.00;153060.72;5002533;28;20472;-84
2023/11/24 10:55:43;;;;;;;5.00;2.67;;;;;;;6.67;100.00;153074.91;4979004;28;20460;-84
2023/11/24 10:58:10;;;;;;;4.00;2.63;;;;;;;6.73;100.00;153090.41;4998881;28;20511;-83
2023/11/24 11:00:37;;;;;;;5.57;2.80;;;;;;;6.79;100.00;153104.63;4998129;28;20483;-84
2023/11/24 11:03:05;;;;;;;7.40;2.60;;;;;;;6.82;100.00;153112.38;4998995;28;20459;-84
2023/11/24 11:05:42;;;;;;;6.70;2.50;;;;;;;6.85;100.00;153120.13;4995917;28;20537;-83
2023/11/24 11:08:18;;;;;;;5.07;2.50;;;;;;;6.87;100.00;153123.97;4998009;28;20495;-83
2023/11/24 11:11:01;;;;;;;7.73;2.63;;;;;;;6.84;100.00;153117.53;4997147;28;20569;-83
2023/11/24 11:13:30;;;;;;;3.50;1.83;;;;;;;6.84;100.00;153117.53;4982378;28;20544;-83
2023/11/24 11:15:56;;;;;;;4.87;2.10;;;;;;;6.85;100.00;153120.13;4996588;28;20445;-84
2023/11/24 11:18:25;;;;;;;3.83;2.40;;;;;;;6.87;100.00;153123.97;4997544;28;20480;-84
2023/11/24 11:20:52;;;;;;;7.20;2.80;;;;;;;6.88;100.00;153126.59;4996379;28;20876;-83
2023/11/24 11:23:19;;;;;;;6.00;2.30;;;;;;;6.86;100.00;153121.44;4995491;28;20519;-83
2023/11/24 11:25:50;;;;;;;4.20;2.40;;;;;;;6.87;100.00;153125.28;4994756;28;21061;-84
2023/11/24 11:28:46;;;;;;;2.80;2.40;;;;;;;6.89;100.00;153129.13;4997304;28;20457;-83